| time (UTC) | temp F | wind direction | speed MPH | gust MPH | rain 1hr in | rain 24hr in | rain mn in | humidity % | barometer mb |
| 20260510134026 | 73 | 147 | 3.0 | 3.0 | 0.00 | 0.00 | 0.00 | 92 | 1011.9 |
| 20260510133521 | 72 | 105 | 2.0 | 2.0 | 0.00 | 0.00 | 0.00 | 93 | 1011.5 |
| 20260510133018 | 72 | 105 | 1.0 | 2.0 | 0.00 | 0.00 | 0.00 | 93 | 1011.5 |
| 20260510132515 | 71 | 165 | 4.0 | 8.0 | 0.00 | 0.00 | 0.00 | 93 | 1011.2 |
| 20260510132012 | 71 | 208 | 6.0 | 8.0 | 0.00 | 0.00 | 0.00 | 93 | 1011.2 |
| 20260510131509 | 71 | 134 | 5.0 | 7.0 | 0.00 | 0.00 | 0.00 | 94 | 1011.2 |
| 20260510131007 | 70 | 194 | 5.0 | 7.0 | 0.00 | 0.00 | 0.00 | 94 | 1011.0 |
| 20260510130502 | 70 | 148 | 1.0 | 2.0 | 0.00 | 0.00 | 0.00 | 95 | 1010.7 |
| 20260510130000 | 69 | 147 | 2.0 | 3.0 | 0.00 | 0.00 | 0.00 | 95 | 1010.9 |
| 20260510125456 | 69 | 74 | 0.0 | 1.0 | 0.00 | 0.00 | 0.00 | 95 | 1010.8 |
| 20260510124953 | 69 | 166 | 2.0 | 3.0 | 0.00 | 0.00 | 0.00 | 95 | 1010.7 |
| 20260510124449 | 68 | 152 | 2.0 | 2.0 | 0.00 | 0.00 | 0.00 | 95 | 1010.5 |
| 20260510123946 | 68 | 135 | 2.0 | 2.0 | 0.00 | 0.00 | 0.00 | 95 | 1010.7 |
| 20260510123442 | 68 | 165 | 4.0 | 6.0 | 0.00 | 0.00 | 0.00 | 95 | 1010.7 |
| 20260510122938 | 68 | 96 | 1.0 | 2.0 | 0.00 | 0.00 | 0.00 | 95 | 1010.6 |
| 20260510122433 | 67 | 300 | 2.0 | 2.0 | 0.00 | 0.00 | 0.00 | 95 | 1010.7 |
| 20260510121929 | 67 | 241 | 3.0 | 5.0 | 0.00 | 0.00 | 0.00 | 95 | 1010.3 |
| 20260510121427 | 67 | 214 | 2.0 | 3.0 | 0.00 | 0.00 | 0.00 | 94 | 1010.2 |
| 20260510120925 | 67 | 124 | 2.0 | 3.0 | 0.00 | 0.00 | 0.00 | 94 | 1010.3 |
| 20260510120421 | 67 | 192 | 1.0 | 5.0 | 0.00 | 0.00 | 0.00 | 94 | 1010.3 |
| 20260510115917 | 67 | 124 | 2.0 | 2.0 | 0.00 | 0.00 | 0.00 | 94 | 1010.4 |
| 20260510115414 | 67 | 121 | 3.0 | 3.0 | 0.00 | 0.00 | 0.00 | 94 | 1010.3 |
| 20260510114910 | 67 | 163 | 2.0 | 2.0 | 0.00 | 0.00 | 0.00 | 94 | 1010.2 |
| 20260510114408 | 67 | 211 | 3.0 | 5.0 | 0.00 | 0.00 | 0.00 | 93 | 1010.3 |
| 20260510113902 | 67 | 197 | 5.0 | 7.0 | 0.00 | 0.00 | 0.00 | 93 | 1010.2 |
| 20260510113359 | 68 | 126 | 2.0 | 2.0 | 0.00 | 0.00 | 0.00 | 93 | 1010.2 |
| 20260510112856 | 68 | 159 | 3.0 | 5.0 | 0.00 | 0.00 | 0.00 | 93 | 1010.3 |
| 20260510112353 | 68 | 169 | 3.0 | 3.0 | 0.00 | 0.00 | 0.00 | 92 | 1010.2 |
| 20260510111848 | 68 | 140 | 4.0 | 7.0 | 0.00 | 0.00 | 0.00 | 92 | 1010.3 |
| 20260510111345 | 68 | 210 | 4.0 | 6.0 | 0.00 | 0.00 | 0.00 | 92 | 1010.2 |
| 20260510110840 | 68 | 124 | 3.0 | 3.0 | 0.00 | 0.00 | 0.00 | 92 | 1010.3 |
| 20260510110337 | 68 | 118 | 2.0 | 2.0 | 0.00 | 0.00 | 0.00 | 91 | 1010.1 |
| 20260510105833 | 68 | 125 | 3.0 | 5.0 | 0.00 | 0.00 | 0.00 | 91 | 1010.2 |
| 20260510105328 | 68 | 108 | 1.0 | 2.0 | 0.00 | 0.00 | 0.00 | 90 | 1010.4 |
| 20260510104824 | 68 | 136 | 3.0 | 3.0 | 0.00 | 0.00 | 0.00 | 90 | 1010.2 |
| 20260510104321 | 68 | 144 | 3.0 | 3.0 | 0.00 | 0.00 | 0.00 | 90 | 1010.0 |
| 20260510103817 | 69 | 249 | 3.0 | 5.0 | 0.00 | 0.00 | 0.00 | 90 | 1010.3 |
| 20260510103314 | 69 | 119 | 2.0 | 2.0 | 0.00 | 0.00 | 0.00 | 89 | 1010.1 |
| 20260510102810 | 69 | 3 | 1.0 | 2.0 | 0.00 | 0.00 | 0.00 | 89 | 1010.0 |
| 20260510102306 | 69 | 91 | 3.0 | 3.0 | 0.00 | 0.00 | 0.00 | 89 | 1010.3 |
| 20260510101803 | 69 | 99 | 2.0 | 3.0 | 0.00 | 0.00 | 0.00 | 88 | 1010.2 |
| 20260510101301 | 69 | 98 | 3.0 | 3.0 | 0.00 | 0.00 | 0.00 | 88 | 1010.2 |
| 20260510100757 | 69 | 119 | 1.0 | 2.0 | 0.00 | 0.00 | 0.00 | 88 | 1010.2 |
| 20260510100255 | 69 | 133 | 2.0 | 2.0 | 0.00 | 0.00 | 0.00 | 88 | 1010.4 |
| 20260510095750 | 69 | 83 | 1.0 | 1.0 | 0.00 | 0.00 | 0.00 | 88 | 1010.2 |
| 20260510095245 | 69 | 139 | 3.0 | 3.0 | 0.00 | 0.00 | 0.00 | 88 | 1010.6 |
| 20260510094744 | 69 | 176 | 3.0 | 3.0 | 0.00 | 0.00 | 0.00 | 88 | 1010.4 |
| 20260510094240 | 69 | 226 | 4.0 | 6.0 | 0.00 | 0.00 | 0.00 | 88 | 1010.5 |
| 20260510093736 | 69 | 193 | 2.0 | 2.0 | 0.00 | 0.00 | 0.00 | 87 | 1010.4 |
| 20260510093234 | 69 | 158 | 2.0 | 2.0 | 0.00 | 0.00 | 0.00 | 87 | 1010.3 |
| 20260510092730 | 69 | 102 | 2.0 | 2.0 | 0.00 | 0.00 | 0.00 | 87 | 1010.5 |
| 20260510092226 | 70 | 122 | 1.0 | 2.0 | 0.00 | 0.00 | 0.00 | 86 | 1010.2 |
| 20260510091721 | 70 | 163 | 2.0 | 3.0 | 0.00 | 0.00 | 0.00 | 86 | 1010.3 |
| 20260510091218 | 70 | 136 | 2.0 | 2.0 | 0.00 | 0.00 | 0.00 | 86 | 1010.4 |
| 20260510090715 | 70 | 174 | 2.0 | 2.0 | 0.00 | 0.00 | 0.00 | 86 | 1010.1 |
| 20260510090212 | 70 | 196 | 4.0 | 5.0 | 0.00 | 0.00 | 0.00 | 86 | 1009.8 |
| 20260510085706 | 69 | 203 | 3.0 | 5.0 | 0.00 | 0.00 | 0.00 | 87 | 1010.3 |
| 20260510085202 | 69 | 105 | 2.0 | 3.0 | 0.00 | 0.00 | 0.00 | 88 | 1010.4 |
| 20260510084658 | 69 | 115 | 3.0 | 3.0 | 0.00 | 0.00 | 0.00 | 89 | 1010.1 |
| 20260510084155 | 69 | 91 | 2.0 | 2.0 | 0.00 | 0.00 | 0.00 | 89 | 1010.3 |
| 20260510083652 | 69 | 197 | 2.0 | 3.0 | 0.00 | 0.00 | 0.00 | 89 | 1010.3 |
| 20260510083149 | 70 | 276 | 1.0 | 2.0 | 0.00 | 0.00 | 0.00 | 89 | 1010.3 |
| 20260510082645 | 70 | 102 | 1.0 | 2.0 | 0.00 | 0.00 | 0.00 | 89 | 1010.2 |
| 20260510082140 | 70 | 182 | 2.0 | 2.0 | 0.00 | 0.00 | 0.00 | 88 | 1010.2 |
| 20260510081636 | 70 | 105 | 1.0 | 2.0 | 0.00 | 0.00 | 0.00 | 88 | 1010.3 |
| 20260510081132 | 70 | 117 | 2.0 | 2.0 | 0.00 | 0.00 | 0.00 | 88 | 1010.2 |
| 20260510080631 | 70 | 97 | 2.0 | 2.0 | 0.00 | 0.00 | 0.00 | 88 | 1010.2 |
| 20260510080128 | 71 | 107 | 1.0 | 1.0 | 0.00 | 0.00 | 0.00 | 88 | 1010.3 |
| 20260510075625 | 71 | 141 | 2.0 | 3.0 | 0.00 | 0.00 | 0.00 | 88 | 1010.1 |
| 20260510075122 | 71 | 106 | 1.0 | 2.0 | 0.00 | 0.00 | 0.00 | 88 | 1010.1 |
| 20260510074619 | 71 | 122 | 2.0 | 2.0 | 0.00 | 0.00 | 0.00 | 88 | 1010.3 |
| 20260510074115 | 71 | 115 | 2.0 | 2.0 | 0.00 | 0.00 | 0.00 | 87 | 1010.2 |
| 20260510073611 | 71 | 108 | 2.0 | 2.0 | 0.00 | 0.00 | 0.00 | 87 | 1010.1 |
| 20260510073109 | 71 | 161 | 3.0 | 3.0 | 0.00 | 0.00 | 0.00 | 87 | 1010.2 |
| 20260510072605 | 71 | 135 | 2.0 | 2.0 | 0.00 | 0.00 | 0.00 | 87 | 1010.1 |
| 20260510072101 | 72 | 130 | 1.0 | 2.0 | 0.00 | 0.00 | 0.00 | 88 | 1010.2 |
| 20260510071557 | 72 | 88 | 1.0 | 1.0 | 0.00 | 0.00 | 0.00 | 88 | 1010.2 |
| 20260510071055 | 72 | 106 | 2.0 | 2.0 | 0.00 | 0.00 | 0.00 | 88 | 1010.1 |
| 20260510070551 | 72 | 123 | 1.0 | 2.0 | 0.00 | 0.00 | 0.00 | 88 | 1010.3 |
| 20260510070049 | 72 | 218 | 2.0 | 3.0 | 0.00 | 0.00 | 0.00 | 88 | 1010.2 |
| 20260510065545 | 72 | 214 | 3.0 | 5.0 | 0.00 | 0.00 | 0.00 | 88 | 1010.2 |
| 20260510065041 | 72 | 165 | 1.0 | 2.0 | 0.00 | 0.00 | 0.00 | 89 | 1010.2 |
| 20260510064538 | 72 | 117 | 3.0 | 5.0 | 0.00 | 0.00 | 0.00 | 89 | 1010.2 |
| 20260510064034 | 72 | 94 | 2.0 | 2.0 | 0.00 | 0.00 | 0.00 | 89 | 1010.2 |
| 20260510063531 | 72 | 94 | 1.0 | 1.0 | 0.00 | 0.00 | 0.00 | 89 | 1010.4 |
| 20260510063029 | 72 | 185 | 3.0 | 3.0 | 0.00 | 0.00 | 0.00 | 90 | 1010.2 |
| 20260510062524 | 72 | 129 | 3.0 | 3.0 | 0.00 | 0.00 | 0.00 | 90 | 1010.1 |
| 20260510062019 | 72 | 127 | 1.0 | 2.0 | 0.00 | 0.00 | 0.00 | 90 | 1010.1 |
| 20260510061516 | 72 | 157 | 3.0 | 3.0 | 0.00 | 0.00 | 0.00 | 90 | 1010.0 |
| 20260510061013 | 72 | 96 | 1.0 | 1.0 | 0.00 | 0.00 | 0.00 | 90 | 1010.2 |
| 20260510060510 | 72 | 185 | 1.0 | 2.0 | 0.00 | 0.00 | 0.00 | 90 | 1010.2 |
| 20260510060006 | 72 | 141 | 2.0 | 2.0 | 0.00 | 0.00 | 0.00 | 90 | 1010.3 |
| 20260510055502 | 72 | 78 | 1.0 | 2.0 | 0.00 | 0.00 | 0.00 | 90 | 1010.2 |
| 20260510055000 | 72 | 82 | 0.0 | 1.0 | 0.00 | 0.00 | 0.00 | 89 | 1010.1 |
| 20260510054455 | 73 | 97 | 1.0 | 2.0 | 0.00 | 0.00 | 0.00 | 89 | 1010.3 |
| 20260510053950 | 73 | 133 | 2.0 | 2.0 | 0.00 | 0.00 | 0.00 | 88 | 1010.2 |
| 20260510053446 | 73 | 94 | 1.0 | 1.0 | 0.00 | 0.00 | 0.00 | 88 | 1010.1 |
| 20260510052942 | 73 | 102 | 1.0 | 1.0 | 0.00 | 0.00 | 0.00 | 88 | 1010.3 |
| 20260510052438 | 73 | 92 | 2.0 | 2.0 | 0.00 | 0.00 | 0.00 | 88 | 1010.3 |
| 20260510051935 | 73 | 82 | 0.0 | 1.0 | 0.00 | 0.00 | 0.00 | 87 | 1010.3 |
| 20260510051431 | 73 | 90 | 1.0 | 1.0 | 0.00 | 0.00 | 0.00 | 87 | 1010.3 |
| 20260510050927 | 73 | 90 | 1.0 | 1.0 | 0.00 | 0.00 | 0.00 | 86 | 1010.1 |
| 20260510050424 | 73 | 85 | 0.0 | 0.0 | 0.00 | 0.00 | 0.00 | 86 | 1010.2 |
| 20260510045921 | 74 | 89 | 0.0 | 1.0 | 0.00 | 0.01 | 0.01 | 86 | 1010.1 |
| 20260510045419 | 74 | 80 | 0.0 | 1.0 | 0.00 | 0.01 | 0.01 | 86 | 1010.0 |
| 20260510044915 | 74 | 95 | 1.0 | 2.0 | 0.00 | 0.01 | 0.01 | 86 | 1009.8 |
| 20260510044412 | 74 | 83 | 1.0 | 1.0 | 0.00 | 0.01 | 0.01 | 86 | 1009.8 |
| 20260510043909 | 74 | 130 | 1.0 | 1.0 | 0.00 | 0.01 | 0.01 | 86 | 1010.0 |
| 20260510043405 | 74 | 111 | 0.0 | 1.0 | 0.00 | 0.01 | 0.01 | 86 | 1009.7 |
| 20260510042903 | 74 | 74 | 0.0 | 0.0 | 0.00 | 0.01 | 0.01 | 86 | 1009.7 |
| 20260510042359 | 74 | 74 | 0.0 | 0.0 | 0.00 | 0.01 | 0.01 | 85 | 1010.0 |
| 20260510041855 | 75 | 73 | 0.0 | 0.0 | 0.00 | 0.01 | 0.01 | 84 | 1009.8 |
| 20260510041352 | 75 | 73 | 1.0 | 1.0 | 0.00 | 0.01 | 0.01 | 85 | 1009.6 |
| 20260510040849 | 75 | 73 | 0.0 | 0.0 | 0.00 | 0.01 | 0.01 | 84 | 1009.6 |
| 20260510040346 | 75 | 73 | 0.0 | 0.0 | 0.00 | 0.01 | 0.01 | 84 | 1009.8 |
| 20260510035842 | 75 | 73 | 0.0 | 0.0 | 0.00 | 0.01 | 0.01 | 84 | 1009.6 |
| 20260510035338 | 75 | 74 | 0.0 | 0.0 | 0.00 | 0.01 | 0.01 | 84 | 1009.5 |
| 20260510034833 | 75 | 76 | 0.0 | 0.0 | 0.00 | 0.01 | 0.01 | 84 | 1009.6 |
| 20260510034332 | 74 | 76 | 0.0 | 0.0 | 0.00 | 0.01 | 0.01 | 84 | 1009.7 |
| 20260510033828 | 75 | 76 | 0.0 | 0.0 | 0.00 | 0.01 | 0.01 | 83 | 1009.4 |
| 20260510033325 | 75 | 76 | 0.0 | 0.0 | 0.00 | 0.01 | 0.01 | 83 | 1009.3 |
| 20260510032821 | 75 | 76 | 0.0 | 0.0 | 0.00 | 0.01 | 0.01 | 82 | 1009.3 |
| 20260510032318 | 76 | 76 | 0.0 | 0.0 | 0.00 | 0.01 | 0.01 | 82 | 1009.5 |
| 20260510031814 | 76 | 78 | 0.0 | 0.0 | 0.00 | 0.01 | 0.01 | 81 | 1009.3 |
| 20260510031309 | 76 | 78 | 0.0 | 0.0 | 0.00 | 0.01 | 0.01 | 81 | 1009.3 |
| 20260510030803 | 76 | 78 | 0.0 | 1.0 | 0.00 | 0.01 | 0.01 | 81 | 1009.1 |
| 20260510030300 | 76 | 78 | 0.0 | 0.0 | 0.00 | 0.01 | 0.01 | 80 | 1009.2 |
| 20260510025757 | 76 | 78 | 0.0 | 0.0 | 0.00 | 0.01 | 0.01 | 80 | 1009.1 |
| 20260510025255 | 77 | 78 | 0.0 | 0.0 | 0.00 | 0.01 | 0.01 | 80 | 1009.0 |
| 20260510024751 | 77 | 78 | 0.0 | 0.0 | 0.00 | 0.01 | 0.01 | 79 | 1008.9 |
| 20260510024248 | 77 | 78 | 0.0 | 0.0 | 0.00 | 0.01 | 0.01 | 79 | 1008.8 |
| 20260510023744 | 77 | 78 | 0.0 | 0.0 | 0.00 | 0.01 | 0.01 | 79 | 1008.8 |
| 20260510023241 | 77 | 78 | 0.0 | 0.0 | 0.00 | 0.01 | 0.01 | 78 | 1008.8 |
| 20260510022737 | 77 | 78 | 1.0 | 1.0 | 0.00 | 0.01 | 0.01 | 78 | 1008.6 |
| 20260510022232 | 78 | 85 | 1.0 | 1.0 | 0.00 | 0.01 | 0.01 | 77 | 1008.8 |
| 20260510021726 | 78 | 93 | 1.0 | 1.0 | 0.00 | 0.01 | 0.01 | 77 | 1008.9 |
| 20260510021225 | 78 | 140 | 2.0 | 3.0 | 0.00 | 0.01 | 0.01 | 76 | 1008.7 |
| 20260510020725 | 78 | 123 | 2.0 | 2.0 | 0.00 | 0.01 | 0.01 | 76 | 1008.7 |
| 20260510020220 | 78 | 158 | 3.0 | 3.0 | 0.00 | 0.01 | 0.01 | 76 | 1008.6 |
| 20260510015716 | 78 | 131 | 2.0 | 2.0 | 0.00 | 0.01 | 0.01 | 76 | 1008.7 |
| 20260510015212 | 78 | 100 | 1.0 | 1.0 | 0.00 | 0.01 | 0.01 | 75 | 1008.5 |
| 20260510014707 | 78 | 96 | 1.0 | 2.0 | 0.00 | 0.01 | 0.01 | 74 | 1008.6 |
| 20260510014206 | 78 | 132 | 3.0 | 5.0 | 0.00 | 0.01 | 0.01 | 73 | 1008.6 |
| 20260510013700 | 78 | 137 | 3.0 | 3.0 | 0.00 | 0.01 | 0.01 | 72 | 1008.3 |
| 20260510013156 | 79 | 100 | 2.0 | 3.0 | 0.00 | 0.01 | 0.01 | 70 | 1008.3 |
| 20260510012656 | 79 | 101 | 1.0 | 1.0 | 0.00 | 0.01 | 0.01 | 69 | 1008.2 |
| 20260510012151 | 79 | 108 | 2.0 | 2.0 | 0.00 | 0.01 | 0.01 | 68 | 1008.2 |
| 20260510011646 | 80 | 124 | 3.0 | 5.0 | 0.00 | 0.01 | 0.01 | 66 | 1008.1 |
| 20260510011143 | 80 | 102 | 1.0 | 2.0 | 0.00 | 0.01 | 0.01 | 64 | 1007.9 |
| 20260510010638 | 80 | 77 | 2.0 | 3.0 | 0.00 | 0.01 | 0.01 | 62 | 1007.9 |
| 20260510010136 | 80 | 105 | 1.0 | 1.0 | 0.00 | 0.01 | 0.01 | 61 | 1007.8 |
| 20260510005631 | 81 | 159 | 2.0 | 3.0 | 0.00 | 0.01 | 0.01 | 62 | 1007.7 |
| 20260510005129 | 81 | 91 | 2.0 | 3.0 | 0.00 | 0.01 | 0.01 | 61 | 1007.7 |
| 20260510004627 | 82 | 138 | 2.0 | 3.0 | 0.00 | 0.01 | 0.01 | 60 | 1007.6 |
| 20260510004125 | 82 | 146 | 2.0 | 2.0 | 0.00 | 0.01 | 0.01 | 61 | 1007.6 |
| 20260510003622 | 0 | 0.0 | 0.0 | 0.00 | 0.00 | 0.00 | 1007.5 | ||
| 20260510003118 | 82 | 101 | 1.0 | 1.0 | 0.00 | 0.01 | 0.01 | 60 | 1007.5 |
| 20260510002617 | 82 | 101 | 1.0 | 1.0 | 0.00 | 0.01 | 0.01 | 60 | 1007.4 |
| 20260510002115 | 0 | 0.0 | 0.0 | 0.00 | 0.00 | 0.00 | 1007.5 | ||
| 20260510001612 | 84 | 151 | 3.0 | 3.0 | 0.00 | 0.01 | 0.01 | 60 | 1007.4 |
| 20260510001111 | 84 | 151 | 3.0 | 3.0 | 0.00 | 0.01 | 0.01 | 60 | 1007.2 |
| 20260510000611 | 84 | 149 | 2.0 | 3.0 | 0.00 | 0.01 | 0.01 | 60 | 1007.3 |
| 20260510000108 | 84 | 146 | 3.0 | 3.0 | 0.00 | 0.01 | 0.01 | 60 | 1007.3 |
| 20260509235604 | 84 | 106 | 1.0 | 1.0 | 0.00 | 0.01 | 0.01 | 62 | 1007.2 |
| 20260509235102 | 84 | 91 | 1.0 | 1.0 | 0.00 | 0.01 | 0.01 | 65 | 1007.2 |
| 20260509234558 | 84 | 123 | 1.0 | 2.0 | 0.00 | 0.01 | 0.01 | 64 | 1007.2 |
| 20260509234055 | 84 | 139 | 2.0 | 2.0 | 0.00 | 0.01 | 0.01 | 63 | 1006.9 |
| 20260509233553 | 84 | 108 | 1.0 | 2.0 | 0.00 | 0.01 | 0.01 | 63 | 1006.9 |
| 20260509233050 | 83 | 135 | 2.0 | 2.0 | 0.00 | 0.01 | 0.01 | 63 | 1007.2 |
| 20260509232546 | 83 | 154 | 3.0 | 6.0 | 0.00 | 0.01 | 0.01 | 65 | 1006.9 |
| 20260509232043 | 83 | 96 | 3.0 | 5.0 | 0.00 | 0.01 | 0.01 | 65 | 1007.2 |
| 20260509231539 | 83 | 139 | 3.0 | 3.0 | 0.00 | 0.01 | 0.01 | 64 | 1007.1 |
| 20260509231037 | 83 | 180 | 2.0 | 2.0 | 0.00 | 0.01 | 0.01 | 65 | 1007.2 |
| 20260509230533 | 82 | 173 | 2.0 | 2.0 | 0.00 | 0.01 | 0.01 | 67 | 1006.9 |
| 20260509230031 | 82 | 117 | 3.0 | 3.0 | 0.00 | 0.01 | 0.01 | 67 | 1006.9 |
| 20260509225526 | 82 | 161 | 3.0 | 5.0 | 0.00 | 0.01 | 0.01 | 65 | 1007.2 |
| 20260509225022 | 83 | 104 | 5.0 | 10.0 | 0.00 | 0.01 | 0.01 | 63 | 1007.1 |
| 20260509224518 | 83 | 103 | 2.0 | 3.0 | 0.00 | 0.01 | 0.01 | 65 | 1007.3 |
| 20260509224015 | 82 | 142 | 4.0 | 5.0 | 0.00 | 0.01 | 0.01 | 67 | 1006.9 |
| 20260509223512 | 81 | 49 | 3.0 | 3.0 | 0.00 | 0.01 | 0.01 | 69 | 1007.1 |
| 20260509223010 | 82 | 131 | 4.0 | 6.0 | 0.00 | 0.01 | 0.01 | 65 | 1007.2 |
| 20260509222505 | 83 | 122 | 4.0 | 6.0 | 0.00 | 0.01 | 0.01 | 62 | 1007.2 |
| 20260509222001 | 84 | 161 | 3.0 | 5.0 | 0.00 | 0.01 | 0.01 | 64 | 1007.3 |
| 20260509221457 | 87 | 16 | 1.0 | 2.0 | 0.00 | 0.01 | 0.01 | 61 | 1007.2 |
| 20260509220953 | 92 | 148 | 2.0 | 2.0 | 0.00 | 0.01 | 0.01 | 54 | 1007.1 |
| 20260509220449 | 95 | 59 | 1.0 | 1.0 | 0.00 | 0.01 | 0.01 | 51 | 1007.2 |
| 20260509215945 | 96 | 43 | 1.0 | 2.0 | 0.00 | 0.01 | 0.01 | 49 | 1006.9 |
| 20260509215441 | 94 | 109 | 2.0 | 2.0 | 0.00 | 0.01 | 0.01 | 51 | 1006.9 |
| 20260509214939 | 93 | 60 | 1.0 | 2.0 | 0.00 | 0.01 | 0.01 | 52 | 1007.1 |
| 20260509214436 | 95 | 146 | 3.0 | 3.0 | 0.00 | 0.01 | 0.01 | 49 | 1007.2 |
| 20260509213932 | 95 | 249 | 1.0 | 2.0 | 0.00 | 0.01 | 0.01 | 46 | 1007.1 |
| 20260509213428 | 94 | 164 | 2.0 | 2.0 | 0.00 | 0.01 | 0.01 | 49 | 1007.1 |
| 20260509212926 | 95 | 104 | 1.0 | 2.0 | 0.00 | 0.01 | 0.01 | 50 | 1006.9 |
| 20260509212423 | 93 | 66 | 0.0 | 1.0 | 0.00 | 0.01 | 0.01 | 50 | 1007.3 |
| 20260509211919 | 92 | 185 | 1.0 | 2.0 | 0.00 | 0.01 | 0.01 | 51 | 1007.3 |
| 20260509211415 | 91 | 212 | 3.0 | 3.0 | 0.00 | 0.01 | 0.01 | 54 | 1007.3 |
| 20260509210911 | 92 | 2 | 3.0 | 3.0 | 0.00 | 0.01 | 0.01 | 52 | 1007.4 |
| 20260509210409 | 93 | 247 | 2.0 | 2.0 | 0.00 | 0.01 | 0.01 | 51 | 1007.3 |
| 20260509205904 | 92 | 287 | 1.0 | 2.0 | 0.00 | 0.01 | 0.01 | 53 | 1007.3 |
| 20260509205403 | 91 | 213 | 0.0 | 1.0 | 0.00 | 0.01 | 0.01 | 54 | 1007.5 |
| 20260509204900 | 89 | 71 | 1.0 | 1.0 | 0.00 | 0.01 | 0.01 | 56 | 1007.5 |
| 20260509204356 | 90 | 312 | 2.0 | 3.0 | 0.00 | 0.01 | 0.01 | 54 | 1007.6 |
| 20260509203853 | 90 | 94 | 1.0 | 2.0 | 0.00 | 0.01 | 0.01 | 54 | 1008.0 |
| 20260509203349 | 90 | 194 | 2.0 | 3.0 | 0.00 | 0.01 | 0.01 | 55 | 1007.8 |
| 20260509202846 | 91 | 316 | 1.0 | 1.0 | 0.00 | 0.01 | 0.01 | 54 | 1007.7 |
| 20260509202342 | 90 | 95 | 1.0 | 2.0 | 0.00 | 0.01 | 0.01 | 54 | 1007.8 |
| 20260509201837 | 88 | 165 | 1.0 | 1.0 | 0.00 | 0.01 | 0.01 | 59 | 1008.1 |
| 20260509201333 | 89 | 173 | 4.0 | 6.0 | 0.00 | 0.01 | 0.01 | 57 | 1008.2 |
| 20260509200830 | 91 | 311 | 0.0 | 1.0 | 0.00 | 0.01 | 0.01 | 54 | 1008.0 |
| 20260509200325 | 92 | 71 | 1.0 | 1.0 | 0.00 | 0.01 | 0.01 | 55 | 1008.2 |
| 20260509195822 | 90 | 51 | 0.0 | 0.0 | 0.00 | 0.01 | 0.01 | 54 | 1008.3 |
| 20260509195322 | 91 | 337 | 1.0 | 1.0 | 0.00 | 0.01 | 0.01 | 55 | 1008.2 |
| 20260509194822 | 90 | 150 | 2.0 | 2.0 | 0.00 | 0.01 | 0.01 | 55 | 1008.3 |
| 20260509194319 | 89 | 125 | 1.0 | 2.0 | 0.00 | 0.01 | 0.01 | 58 | 1008.5 |
| 20260509193815 | 89 | 173 | 4.0 | 6.0 | 0.00 | 0.01 | 0.01 | 57 | 1008.4 |
| 20260509193315 | 90 | 78 | 2.0 | 2.0 | 0.00 | 0.01 | 0.01 | 58 | 1008.5 |
| 20260509192812 | 89 | 1 | 1.0 | 1.0 | 0.00 | 0.01 | 0.01 | 57 | 1008.6 |
| 20260509192308 | 90 | 208 | 2.0 | 2.0 | 0.00 | 0.01 | 0.01 | 55 | 1008.7 |
| 20260509191803 | 90 | 197 | 4.0 | 5.0 | 0.00 | 0.01 | 0.01 | 58 | 1009.1 |
| 20260509191259 | 91 | 314 | 2.0 | 2.0 | 0.00 | 0.01 | 0.01 | 56 | 1009.1 |
| 20260509190755 | 90 | 98 | 1.0 | 2.0 | 0.00 | 0.01 | 0.01 | 56 | 1009.3 |
| 20260509190253 | 89 | 213 | 1.0 | 1.0 | 0.00 | 0.01 | 0.01 | 58 | 1009.3 |
| 20260509185750 | 87 | 51 | 1.0 | 1.0 | 0.00 | 0.01 | 0.01 | 61 | 1009.2 |
| 20260509185246 | 90 | 350 | 1.0 | 1.0 | 0.00 | 0.01 | 0.01 | 59 | 1009.4 |
| 20260509184743 | 86 | 159 | 1.0 | 2.0 | 0.00 | 0.01 | 0.01 | 65 | 1009.1 |
| 20260509184241 | 85 | 317 | 3.0 | 3.0 | 0.00 | 0.01 | 0.01 | 65 | 1009.3 |
| 20260509183737 | 86 | 260 | 3.0 | 5.0 | 0.00 | 0.01 | 0.01 | 66 | 1009.2 |
| 20260509183232 | 88 | 152 | 3.0 | 3.0 | 0.00 | 0.01 | 0.01 | 63 | 1009.3 |
| 20260509182727 | 88 | 198 | 4.0 | 6.0 | 0.00 | 0.01 | 0.01 | 62 | 1009.3 |
| 20260509182226 | 88 | 233 | 2.0 | 3.0 | 0.00 | 0.01 | 0.01 | 61 | 1009.4 |
| 20260509181723 | 88 | 244 | 3.0 | 3.0 | 0.00 | 0.01 | 0.01 | 62 | 1009.3 |
| 20260509181220 | 88 | 352 | 1.0 | 2.0 | 0.00 | 0.01 | 0.01 | 62 | 1009.6 |
| 20260509180717 | 88 | 306 | 1.0 | 1.0 | 0.00 | 0.01 | 0.01 | 64 | 1009.5 |
| 20260509180213 | 87 | 115 | 3.0 | 3.0 | 0.00 | 0.01 | 0.01 | 64 | 1009.6 |
| 20260509175710 | 86 | 283 | 2.0 | 2.0 | 0.00 | 0.01 | 0.01 | 66 | 1009.8 |
| 20260509175206 | 85 | 234 | 4.0 | 6.0 | 0.00 | 0.01 | 0.01 | 68 | 1009.8 |
| 20260509174702 | 85 | 245 | 3.0 | 5.0 | 0.00 | 0.01 | 0.01 | 68 | 1009.8 |
| 20260509174157 | 86 | 296 | 3.0 | 5.0 | 0.00 | 0.01 | 0.01 | 68 | 1010.3 |
| 20260509173653 | 85 | 265 | 2.0 | 3.0 | 0.00 | 0.01 | 0.01 | 70 | 1010.1 |
| 20260509173149 | 85 | 229 | 1.0 | 2.0 | 0.00 | 0.01 | 0.01 | 70 | 1010.2 |
| 20260509172646 | 85 | 15 | 2.0 | 3.0 | 0.00 | 0.01 | 0.01 | 71 | 1010.2 |
| 20260509172142 | 85 | 15 | 2.0 | 3.0 | 0.00 | 0.01 | 0.01 | 71 | 1010.0 |
| 20260509171638 | 85 | 274 | 4.0 | 6.0 | 0.00 | 0.01 | 0.01 | 70 | 1010.3 |
| 20260509171134 | 85 | 274 | 4.0 | 6.0 | 0.00 | 0.01 | 0.01 | 70 | 1010.5 |
| 20260509170631 | 83 | 275 | 3.0 | 5.0 | 0.00 | 0.01 | 0.01 | 74 | 1010.0 |
| 20260509170127 | 83 | 275 | 3.0 | 5.0 | 0.00 | 0.01 | 0.01 | 74 | 1010.0 |
| 20260509165625 | 84 | 147 | 3.0 | 3.0 | 0.00 | 0.01 | 0.01 | 72 | 1010.3 |
| 20260509165121 | 84 | 239 | 3.0 | 3.0 | 0.00 | 0.01 | 0.01 | 74 | 1010.3 |
| 20260509164617 | 83 | 215 | 1.0 | 2.0 | 0.00 | 0.01 | 0.01 | 74 | 1010.1 |
| 20260509164113 | 82 | 247 | 1.0 | 1.0 | 0.00 | 0.01 | 0.01 | 75 | 1010.3 |
| 20260509163611 | 81 | 268 | 3.0 | 3.0 | 0.00 | 0.01 | 0.01 | 79 | 1010.2 |
| 20260509163106 | 81 | 268 | 3.0 | 3.0 | 0.00 | 0.01 | 0.01 | 79 | 1010.5 |
| 20260509162604 | 81 | 265 | 3.0 | 3.0 | 0.00 | 0.01 | 0.01 | 82 | 1010.5 |
| 20260509162059 | 78 | 111 | 1.0 | 2.0 | 0.00 | 0.01 | 0.01 | 92 | 1010.4 |
| 20260509161551 | 78 | 111 | 1.0 | 2.0 | 0.00 | 0.01 | 0.01 | 92 | 1010.4 |
| 20260509161051 | 75 | 107 | 1.0 | 1.0 | 0.00 | 0.01 | 0.01 | 96 | 1010.3 |
| 20260509160547 | 75 | 118 | 1.0 | 2.0 | 0.00 | 0.01 | 0.01 | 97 | 1010.6 |
| 20260509160042 | 75 | 291 | 2.0 | 2.0 | 0.00 | 0.01 | 0.01 | 97 | 1010.4 |
| 20260509155539 | 75 | 14 | 2.0 | 2.0 | 0.00 | 0.01 | 0.01 | 98 | 1010.5 |
| 20260509155035 | 75 | 119 | 2.0 | 3.0 | 0.00 | 0.01 | 0.01 | 98 | 1010.3 |
| 20260509154531 | 74 | 108 | 1.0 | 1.0 | 0.00 | 0.01 | 0.01 | 99 | 1010.5 |
| 20260509154029 | 74 | 136 | 3.0 | 5.0 | 0.00 | 0.01 | 0.01 | 99 | 1010.5 |
| 20260509153526 | 73 | 153 | 2.0 | 2.0 | 0.07 | 0.01 | 0.01 | 99 | 1010.6 |
| 20260509153023 | 73 | 165 | 4.0 | 5.0 | 0.07 | 0.01 | 0.01 | 99 | 1010.3 |
| 20260509152518 | 73 | 147 | 4.0 | 7.0 | 0.00 | 0.00 | 0.00 | 99 | 1010.1 |
| 20260509152015 | 72 | 178 | 4.0 | 5.0 | 0.00 | 0.00 | 0.00 | 99 | 1010.2 |
| 20260509151512 | 72 | 136 | 2.0 | 2.0 | 0.00 | 0.00 | 0.00 | 99 | 1010.7 |
| 20260509151010 | 72 | 307 | 1.0 | 2.0 | 0.00 | 0.00 | 0.00 | 99 | 1011.0 |
| 20260509150507 | 72 | 102 | 1.0 | 1.0 | 0.00 | 0.00 | 0.00 | 99 | 1010.7 |
| 20260509150006 | 72 | 130 | 2.0 | 2.0 | 0.00 | 0.00 | 0.00 | 99 | 1010.8 |
| 20260509145501 | 72 | 75 | 0.0 | 1.0 | 0.00 | 0.00 | 0.00 | 99 | 1011.1 |
| 20260509144956 | 71 | 78 | 0.0 | 1.0 | 0.00 | 0.00 | 0.00 | 99 | 1010.9 |
| 20260509144453 | 71 | 91 | 0.0 | 1.0 | 0.00 | 0.00 | 0.00 | 99 | 1010.8 |
| 20260509143950 | 71 | 94 | 1.0 | 1.0 | 0.00 | 0.00 | 0.00 | 99 | 1011.0 |
| 20260509143447 | 71 | 121 | 2.0 | 2.0 | 0.00 | 0.00 | 0.00 | 99 | 1011.0 |
| 20260509142944 | 71 | 71 | 0.0 | 0.0 | 0.00 | 0.00 | 0.00 | 99 | 1010.9 |
| 20260509142440 | 71 | 61 | 0.0 | 0.0 | 0.00 | 0.00 | 0.00 | 99 | 1011.0 |
| 20260509141936 | 71 | 61 | 0.0 | 0.0 | 0.00 | 0.00 | 0.00 | 99 | 1010.9 |
| 20260509141433 | 71 | 57 | 0.0 | 0.0 | 0.00 | 0.00 | 0.00 | 99 | 1010.6 |
| 20260509140930 | 71 | 51 | 0.0 | 0.0 | 0.00 | 0.00 | 0.00 | 99 | 1010.3 |
| 20260509140426 | 71 | 52 | 0.0 | 0.0 | 0.00 | 0.00 | 0.00 | 99 | 1010.2 |
| 20260509135924 | 71 | 58 | 0.0 | 0.0 | 0.00 | 0.00 | 0.00 | 99 | 1010.0 |
| 20260509135421 | 71 | 56 | 0.0 | 0.0 | 0.00 | 0.00 | 0.00 | 99 | 1009.7 |
| 20260509134919 | 71 | 56 | 0.0 | 0.0 | 0.00 | 0.00 | 0.00 | 99 | 1009.6 |
| 20260509134416 | 71 | 55 | 0.0 | 0.0 | 0.00 | 0.00 | 0.00 | 99 | 1009.8 |